sensor_id;sensor_type;location;lat;lon;timestamp;P1;durP1;ratioP1;P2;durP2;ratioP2
9214;SDS011;4642;51.364;6.788;2023-01-10T00:00:24;10.00;;;4.63;;
9214;SDS011;4642;51.364;6.788;2023-01-10T00:02:51;9.50;;;4.70;;
9214;SDS011;4642;51.364;6.788;2023-01-10T00:05:17;9.73;;;4.23;;
9214;SDS011;4642;51.364;6.788;2023-01-10T00:07:43;6.63;;;3.87;;
9214;SDS011;4642;51.364;6.788;2023-01-10T00:10:09;9.67;;;4.50;;
9214;SDS011;4642;51.364;6.788;2023-01-10T00:12:35;9.57;;;3.70;;
9214;SDS011;4642;51.364;6.788;2023-01-10T00:15:19;8.87;;;3.53;;
9214;SDS011;4642;51.364;6.788;2023-01-10T00:17:45;13.47;;;4.00;;
9214;SDS011;4642;51.364;6.788;2023-01-10T00:20:11;9.83;;;4.10;;
9214;SDS011;4642;51.364;6.788;2023-01-10T00:22:37;12.37;;;3.67;;
9214;SDS011;4642;51.364;6.788;2023-01-10T00:25:02;12.27;;;3.50;;
9214;SDS011;4642;51.364;6.788;2023-01-10T00:27:28;12.17;;;3.57;;
9214;SDS011;4642;51.364;6.788;2023-01-10T00:29:54;7.23;;;3.73;;
9214;SDS011;4642;51.364;6.788;2023-01-10T00:32:22;7.97;;;3.77;;
9214;SDS011;4642;51.364;6.788;2023-01-10T00:34:47;7.33;;;3.77;;
9214;SDS011;4642;51.364;6.788;2023-01-10T00:37:13;8.90;;;3.43;;
9214;SDS011;4642;51.364;6.788;2023-01-10T00:39:39;7.53;;;3.20;;
9214;SDS011;4642;51.364;6.788;2023-01-10T00:42:05;13.17;;;4.27;;
9214;SDS011;4642;51.364;6.788;2023-01-10T00:44:49;8.87;;;3.83;;
9214;SDS011;4642;51.364;6.788;2023-01-10T00:47:15;10.33;;;3.30;;
9214;SDS011;4642;51.364;6.788;2023-01-10T00:49:42;14.17;;;4.00;;
9214;SDS011;4642;51.364;6.788;2023-01-10T00:52:08;10.53;;;3.17;;
9214;SDS011;4642;51.364;6.788;2023-01-10T00:54:33;8.57;;;3.90;;
9214;SDS011;4642;51.364;6.788;2023-01-10T00:56:59;11.20;;;3.60;;
9214;SDS011;4642;51.364;6.788;2023-01-10T00:59:24;8.97;;;4.07;;
9214;SDS011;4642;51.364;6.788;2023-01-10T01:01:50;10.10;;;3.13;;
9214;SDS011;4642;51.364;6.788;2023-01-10T01:04:16;10.73;;;3.20;;
9214;SDS011;4642;51.364;6.788;2023-01-10T01:06:42;8.77;;;3.07;;
9214;SDS011;4642;51.364;6.788;2023-01-10T01:09:09;4.97;;;2.83;;
9214;SDS011;4642;51.364;6.788;2023-01-10T01:11:35;8.13;;;2.97;;
9214;SDS011;4642;51.364;6.788;2023-01-10T01:14:00;9.87;;;3.20;;
9214;SDS011;4642;51.364;6.788;2023-01-10T01:16:26;13.00;;;2.40;;
9214;SDS011;4642;51.364;6.788;2023-01-10T01:18:51;13.67;;;3.00;;
9214;SDS011;4642;51.364;6.788;2023-01-10T01:21:17;11.60;;;2.40;;
9214;SDS011;4642;51.364;6.788;2023-01-10T01:23:43;8.70;;;2.30;;
9214;SDS011;4642;51.364;6.788;2023-01-10T01:26:08;7.57;;;2.40;;
9214;SDS011;4642;51.364;6.788;2023-01-10T01:28:35;7.80;;;2.47;;
9214;SDS011;4642;51.364;6.788;2023-01-10T01:31:05;7.97;;;2.53;;
9214;SDS011;4642;51.364;6.788;2023-01-10T01:33:34;9.00;;;2.33;;
9214;SDS011;4642;51.364;6.788;2023-01-10T01:35:59;7.67;;;2.53;;
9214;SDS011;4642;51.364;6.788;2023-01-10T01:38:25;8.20;;;2.13;;
9214;SDS011;4642;51.364;6.788;2023-01-10T01:40:50;9.10;;;2.23;;
9214;SDS011;4642;51.364;6.788;2023-01-10T01:43:26;11.60;;;1.97;;
9214;SDS011;4642;51.364;6.788;2023-01-10T01:45:53;7.83;;;2.00;;
9214;SDS011;4642;51.364;6.788;2023-01-10T01:51:09;11.40;;;2.63;;
9214;SDS011;4642;51.364;6.788;2023-01-10T01:54:13;7.60;;;2.10;;
9214;SDS011;4642;51.364;6.788;2023-01-10T01:56:37;6.40;;;2.17;;
9214;SDS011;4642;51.364;6.788;2023-01-10T02:01:48;7.20;;;2.37;;
9214;SDS011;4642;51.364;6.788;2023-01-10T02:04:17;12.20;;;2.10;;
9214;SDS011;4642;51.364;6.788;2023-01-10T02:06:46;9.40;;;2.00;;
9214;SDS011;4642;51.364;6.788;2023-01-10T02:09:17;9.93;;;2.50;;
9214;SDS011;4642;51.364;6.788;2023-01-10T02:11:50;8.53;;;2.40;;
9214;SDS011;4642;51.364;6.788;2023-01-10T02:14:16;6.93;;;2.17;;
9214;SDS011;4642;51.364;6.788;2023-01-10T02:16:44;10.53;;;2.30;;
9214;SDS011;4642;51.364;6.788;2023-01-10T02:19:33;8.90;;;2.87;;
9214;SDS011;4642;51.364;6.788;2023-01-10T02:32:47;9.17;;;2.17;;
9214;SDS011;4642;51.364;6.788;2023-01-10T02:35:39;14.27;;;2.70;;
9214;SDS011;4642;51.364;6.788;2023-01-10T02:38:16;4.53;;;2.03;;
9214;SDS011;4642;51.364;6.788;2023-01-10T02:47:02;5.87;;;2.00;;
9214;SDS011;4642;51.364;6.788;2023-01-10T02:49:28;7.60;;;1.80;;
9214;SDS011;4642;51.364;6.788;2023-01-10T02:51:54;10.77;;;1.97;;
9214;SDS011;4642;51.364;6.788;2023-01-10T02:54:22;7.00;;;2.00;;
9214;SDS011;4642;51.364;6.788;2023-01-10T03:07:29;11.83;;;2.63;;
9214;SDS011;4642;51.364;6.788;2023-01-10T03:10:07;10.10;;;2.53;;
9214;SDS011;4642;51.364;6.788;2023-01-10T03:15:16;8.47;;;2.27;;
9214;SDS011;4642;51.364;6.788;2023-01-10T03:17:44;16.07;;;2.30;;
9214;SDS011;4642;51.364;6.788;2023-01-10T03:20:14;9.13;;;2.63;;
9214;SDS011;4642;51.364;6.788;2023-01-10T03:22:41;7.80;;;2.17;;
9214;SDS011;4642;51.364;6.788;2023-01-10T03:25:09;14.10;;;2.73;;
9214;SDS011;4642;51.364;6.788;2023-01-10T03:27:40;13.23;;;2.30;;
9214;SDS011;4642;51.364;6.788;2023-01-10T03:30:40;9.20;;;2.20;;
9214;SDS011;4642;51.364;6.788;2023-01-10T03:33:23;10.43;;;2.77;;
9214;SDS011;4642;51.364;6.788;2023-01-10T03:38:54;8.23;;;2.43;;
9214;SDS011;4642;51.364;6.788;2023-01-10T03:41:42;7.50;;;2.13;;
9214;SDS011;4642;51.364;6.788;2023-01-10T03:44:15;12.30;;;2.27;;
9214;SDS011;4642;51.364;6.788;2023-01-10T03:47:15;14.10;;;2.73;;
9214;SDS011;4642;51.364;6.788;2023-01-10T03:49:44;10.90;;;2.03;;
9214;SDS011;4642;51.364;6.788;2023-01-10T03:52:14;13.77;;;2.67;;
9214;SDS011;4642;51.364;6.788;2023-01-10T03:54:43;7.30;;;2.47;;
9214;SDS011;4642;51.364;6.788;2023-01-10T03:57:16;5.43;;;2.10;;
9214;SDS011;4642;51.364;6.788;2023-01-10T03:59:43;7.93;;;2.20;;
9214;SDS011;4642;51.364;6.788;2023-01-10T04:02:09;8.73;;;2.17;;
9214;SDS011;4642;51.364;6.788;2023-01-10T04:04:35;10.67;;;2.67;;
9214;SDS011;4642;51.364;6.788;2023-01-10T04:07:00;6.67;;;2.33;;
9214;SDS011;4642;51.364;6.788;2023-01-10T04:09:26;9.37;;;3.00;;
9214;SDS011;4642;51.364;6.788;2023-01-10T04:11:51;9.67;;;2.17;;
9214;SDS011;4642;51.364;6.788;2023-01-10T04:14:17;10.20;;;2.17;;
9214;SDS011;4642;51.364;6.788;2023-01-10T04:16:42;12.30;;;2.10;;
9214;SDS011;4642;51.364;6.788;2023-01-10T04:19:08;12.07;;;2.47;;
9214;SDS011;4642;51.364;6.788;2023-01-10T04:21:33;9.17;;;2.00;;
9214;SDS011;4642;51.364;6.788;2023-01-10T04:23:59;8.97;;;2.67;;
9214;SDS011;4642;51.364;6.788;2023-01-10T04:26:25;7.17;;;2.07;;
9214;SDS011;4642;51.364;6.788;2023-01-10T04:28:50;14.83;;;2.83;;
9214;SDS011;4642;51.364;6.788;2023-01-10T04:31:16;12.63;;;2.50;;
9214;SDS011;4642;51.364;6.788;2023-01-10T04:33:41;8.63;;;2.40;;
9214;SDS011;4642;51.364;6.788;2023-01-10T04:36:07;15.07;;;2.50;;
9214;SDS011;4642;51.364;6.788;2023-01-10T04:38:32;8.70;;;1.93;;
9214;SDS011;4642;51.364;6.788;2023-01-10T04:40:58;9.60;;;2.80;;
9214;SDS011;4642;51.364;6.788;2023-01-10T04:43:24;8.07;;;2.17;;
9214;SDS011;4642;51.364;6.788;2023-01-10T04:45:51;6.73;;;2.07;;
9214;SDS011;4642;51.364;6.788;2023-01-10T04:48:16;9.80;;;1.97;;
9214;SDS011;4642;51.364;6.788;2023-01-10T04:50:47;10.30;;;1.90;;
9214;SDS011;4642;51.364;6.788;2023-01-10T04:53:14;7.77;;;2.07;;
9214;SDS011;4642;51.364;6.788;2023-01-10T04:55:39;6.43;;;1.83;;
9214;SDS011;4642;51.364;6.788;2023-01-10T04:58:05;9.83;;;2.07;;
9214;SDS011;4642;51.364;6.788;2023-01-10T05:00:30;5.63;;;1.90;;
9214;SDS011;4642;51.364;6.788;2023-01-10T05:02:56;6.47;;;1.80;;
9214;SDS011;4642;51.364;6.788;2023-01-10T05:05:22;7.63;;;2.40;;
9214;SDS011;4642;51.364;6.788;2023-01-10T05:07:48;7.37;;;2.07;;
9214;SDS011;4642;51.364;6.788;2023-01-10T05:10:13;12.03;;;2.10;;
9214;SDS011;4642;51.364;6.788;2023-01-10T05:12:39;14.03;;;2.53;;
9214;SDS011;4642;51.364;6.788;2023-01-10T05:15:05;8.90;;;2.13;;
9214;SDS011;4642;51.364;6.788;2023-01-10T05:17:31;9.10;;;2.27;;
9214;SDS011;4642;51.364;6.788;2023-01-10T05:19:56;11.83;;;2.10;;
9214;SDS011;4642;51.364;6.788;2023-01-10T05:22:22;10.30;;;2.63;;
9214;SDS011;4642;51.364;6.788;2023-01-10T05:24:48;11.23;;;2.47;;
9214;SDS011;4642;51.364;6.788;2023-01-10T05:27:13;11.07;;;2.50;;
9214;SDS011;4642;51.364;6.788;2023-01-10T05:29:39;7.83;;;2.30;;
9214;SDS011;4642;51.364;6.788;2023-01-10T05:32:05;9.87;;;2.43;;
9214;SDS011;4642;51.364;6.788;2023-01-10T05:34:31;11.20;;;2.33;;
9214;SDS011;4642;51.364;6.788;2023-01-10T05:36:56;7.57;;;2.97;;
9214;SDS011;4642;51.364;6.788;2023-01-10T05:39:22;7.47;;;2.90;;
9214;SDS011;4642;51.364;6.788;2023-01-10T05:41:47;11.30;;;2.27;;
9214;SDS011;4642;51.364;6.788;2023-01-10T05:44:13;10.03;;;2.23;;
9214;SDS011;4642;51.364;6.788;2023-01-10T05:46:39;11.10;;;3.07;;
9214;SDS011;4642;51.364;6.788;2023-01-10T05:49:04;7.63;;;2.00;;
9214;SDS011;4642;51.364;6.788;2023-01-10T05:51:30;11.77;;;2.33;;
9214;SDS011;4642;51.364;6.788;2023-01-10T05:53:56;10.57;;;2.27;;
9214;SDS011;4642;51.364;6.788;2023-01-10T05:56:22;11.87;;;2.80;;
9214;SDS011;4642;51.364;6.788;2023-01-10T05:58:48;8.63;;;2.23;;
9214;SDS011;4642;51.364;6.788;2023-01-10T06:01:14;7.83;;;2.20;;
9214;SDS011;4642;51.364;6.788;2023-01-10T06:03:39;12.53;;;2.63;;
9214;SDS011;4642;51.364;6.788;2023-01-10T06:06:05;8.40;;;2.50;;
9214;SDS011;4642;51.364;6.788;2023-01-10T06:08:31;13.97;;;2.43;;
9214;SDS011;4642;51.364;6.788;2023-01-10T06:10:56;13.27;;;2.43;;
9214;SDS011;4642;51.364;6.788;2023-01-10T06:13:22;10.33;;;3.50;;
9214;SDS011;4642;51.364;6.788;2023-01-10T06:15:48;13.53;;;3.17;;
9214;SDS011;4642;51.364;6.788;2023-01-10T06:18:14;13.17;;;3.00;;
9214;SDS011;4642;51.364;6.788;2023-01-10T06:20:40;12.63;;;3.03;;
9214;SDS011;4642;51.364;6.788;2023-01-10T06:23:07;16.80;;;2.47;;
9214;SDS011;4642;51.364;6.788;2023-01-10T06:25:33;14.23;;;2.97;;
9214;SDS011;4642;51.364;6.788;2023-01-10T06:28:01;14.57;;;2.90;;
9214;SDS011;4642;51.364;6.788;2023-01-10T06:30:27;15.80;;;2.77;;
9214;SDS011;4642;51.364;6.788;2023-01-10T06:32:53;16.80;;;3.57;;
9214;SDS011;4642;51.364;6.788;2023-01-10T06:35:23;16.73;;;2.90;;
9214;SDS011;4642;51.364;6.788;2023-01-10T06:37:49;19.37;;;2.80;;
9214;SDS011;4642;51.364;6.788;2023-01-10T06:40:15;15.40;;;2.40;;
9214;SDS011;4642;51.364;6.788;2023-01-10T06:42:41;11.17;;;2.57;;
9214;SDS011;4642;51.364;6.788;2023-01-10T06:45:06;13.90;;;2.70;;
9214;SDS011;4642;51.364;6.788;2023-01-10T06:47:34;8.73;;;2.43;;
9214;SDS011;4642;51.364;6.788;2023-01-10T06:49:59;7.90;;;2.30;;
9214;SDS011;4642;51.364;6.788;2023-01-10T06:52:25;13.97;;;2.20;;
9214;SDS011;4642;51.364;6.788;2023-01-10T06:54:50;12.00;;;2.23;;
9214;SDS011;4642;51.364;6.788;2023-01-10T06:57:17;10.03;;;2.90;;
9214;SDS011;4642;51.364;6.788;2023-01-10T06:59:42;11.07;;;3.43;;
9214;SDS011;4642;51.364;6.788;2023-01-10T07:02:09;13.33;;;2.43;;
9214;SDS011;4642;51.364;6.788;2023-01-10T07:04:35;14.70;;;3.17;;
9214;SDS011;4642;51.364;6.788;2023-01-10T07:07:01;16.50;;;2.73;;
9214;SDS011;4642;51.364;6.788;2023-01-10T07:09:27;18.30;;;3.40;;
9214;SDS011;4642;51.364;6.788;2023-01-10T07:11:53;13.87;;;2.53;;
9214;SDS011;4642;51.364;6.788;2023-01-10T07:14:18;18.47;;;3.20;;
9214;SDS011;4642;51.364;6.788;2023-01-10T07:16:44;16.30;;;3.60;;
9214;SDS011;4642;51.364;6.788;2023-01-10T07:19:10;12.97;;;2.73;;
9214;SDS011;4642;51.364;6.788;2023-01-10T07:21:37;13.10;;;2.60;;
9214;SDS011;4642;51.364;6.788;2023-01-10T07:24:03;14.07;;;3.03;;
9214;SDS011;4642;51.364;6.788;2023-01-10T07:26:29;12.83;;;2.70;;
9214;SDS011;4642;51.364;6.788;2023-01-10T07:28:55;8.57;;;2.33;;
9214;SDS011;4642;51.364;6.788;2023-01-10T07:31:21;12.40;;;2.80;;
9214;SDS011;4642;51.364;6.788;2023-01-10T07:33:47;15.00;;;3.70;;
9214;SDS011;4642;51.364;6.788;2023-01-10T07:36:15;14.10;;;2.90;;
9214;SDS011;4642;51.364;6.788;2023-01-10T07:38:40;14.97;;;2.70;;
9214;SDS011;4642;51.364;6.788;2023-01-10T07:41:06;20.97;;;3.27;;
9214;SDS011;4642;51.364;6.788;2023-01-10T07:43:32;13.57;;;3.60;;
9214;SDS011;4642;51.364;6.788;2023-01-10T07:45:58;15.00;;;2.73;;
9214;SDS011;4642;51.364;6.788;2023-01-10T07:48:24;10.53;;;2.87;;
9214;SDS011;4642;51.364;6.788;2023-01-10T07:50:53;21.33;;;3.17;;
9214;SDS011;4642;51.364;6.788;2023-01-10T07:53:23;22.30;;;3.80;;
9214;SDS011;4642;51.364;6.788;2023-01-10T07:55:49;25.47;;;4.60;;
9214;SDS011;4642;51.364;6.788;2023-01-10T07:58:15;22.23;;;2.97;;
9214;SDS011;4642;51.364;6.788;2023-01-10T08:00:40;14.87;;;2.67;;
9214;SDS011;4642;51.364;6.788;2023-01-10T08:03:06;17.47;;;3.40;;
9214;SDS011;4642;51.364;6.788;2023-01-10T08:05:33;14.83;;;3.07;;
9214;SDS011;4642;51.364;6.788;2023-01-10T08:08:03;8.23;;;3.33;;
9214;SDS011;4642;51.364;6.788;2023-01-10T08:10:29;19.93;;;3.87;;
9214;SDS011;4642;51.364;6.788;2023-01-10T08:12:55;14.53;;;2.90;;
9214;SDS011;4642;51.364;6.788;2023-01-10T08:15:20;10.50;;;2.90;;
9214;SDS011;4642;51.364;6.788;2023-01-10T08:17:46;12.90;;;2.73;;
9214;SDS011;4642;51.364;6.788;2023-01-10T08:20:11;19.00;;;3.77;;
9214;SDS011;4642;51.364;6.788;2023-01-10T08:22:37;16.23;;;3.60;;
9214;SDS011;4642;51.364;6.788;2023-01-10T08:25:02;19.83;;;3.60;;
9214;SDS011;4642;51.364;6.788;2023-01-10T08:27:28;21.07;;;3.53;;
9214;SDS011;4642;51.364;6.788;2023-01-10T08:29:54;14.87;;;3.60;;
9214;SDS011;4642;51.364;6.788;2023-01-10T08:32:19;13.97;;;3.50;;
9214;SDS011;4642;51.364;6.788;2023-01-10T08:34:46;11.77;;;2.90;;
9214;SDS011;4642;51.364;6.788;2023-01-10T08:37:12;11.57;;;2.87;;
9214;SDS011;4642;51.364;6.788;2023-01-10T08:39:38;20.73;;;5.03;;
9214;SDS011;4642;51.364;6.788;2023-01-10T08:42:04;9.90;;;2.70;;
9214;SDS011;4642;51.364;6.788;2023-01-10T08:44:29;12.87;;;3.17;;
9214;SDS011;4642;51.364;6.788;2023-01-10T08:46:55;16.83;;;2.80;;
9214;SDS011;4642;51.364;6.788;2023-01-10T08:49:20;15.67;;;3.37;;
9214;SDS011;4642;51.364;6.788;2023-01-10T08:51:46;17.20;;;2.90;;
9214;SDS011;4642;51.364;6.788;2023-01-10T08:54:12;20.47;;;3.50;;
9214;SDS011;4642;51.364;6.788;2023-01-10T08:56:37;15.33;;;3.67;;
9214;SDS011;4642;51.364;6.788;2023-01-10T08:59:04;17.30;;;3.47;;
9214;SDS011;4642;51.364;6.788;2023-01-10T09:01:30;15.33;;;2.83;;
9214;SDS011;4642;51.364;6.788;2023-01-10T09:03:55;11.47;;;3.37;;
9214;SDS011;4642;51.364;6.788;2023-01-10T09:06:21;16.80;;;3.73;;
9214;SDS011;4642;51.364;6.788;2023-01-10T09:08:48;15.03;;;3.13;;
9214;SDS011;4642;51.364;6.788;2023-01-10T09:11:14;19.87;;;3.80;;
9214;SDS011;4642;51.364;6.788;2023-01-10T09:13:39;16.43;;;2.90;;
9214;SDS011;4642;51.364;6.788;2023-01-10T09:16:06;19.63;;;3.97;;
9214;SDS011;4642;51.364;6.788;2023-01-10T09:18:31;14.67;;;3.07;;
9214;SDS011;4642;51.364;6.788;2023-01-10T09:20:58;24.60;;;3.93;;
9214;SDS011;4642;51.364;6.788;2023-01-10T09:23:23;8.60;;;2.83;;
9214;SDS011;4642;51.364;6.788;2023-01-10T09:25:50;14.17;;;2.80;;
9214;SDS011;4642;51.364;6.788;2023-01-10T09:28:17;12.03;;;2.90;;
9214;SDS011;4642;51.364;6.788;2023-01-10T09:30:44;16.80;;;3.57;;
9214;SDS011;4642;51.364;6.788;2023-01-10T09:33:09;17.43;;;3.17;;
9214;SDS011;4642;51.364;6.788;2023-01-10T09:35:38;19.10;;;3.70;;
9214;SDS011;4642;51.364;6.788;2023-01-10T09:38:05;21.70;;;4.53;;
9214;SDS011;4642;51.364;6.788;2023-01-10T09:40:42;31.50;;;4.67;;
9214;SDS011;4642;51.364;6.788;2023-01-10T09:46:03;19.47;;;3.33;;
9214;SDS011;4642;51.364;6.788;2023-01-10T09:53:45;18.27;;;3.20;;
9214;SDS011;4642;51.364;6.788;2023-01-10T09:56:12;20.27;;;3.07;;
9214;SDS011;4642;51.364;6.788;2023-01-10T09:58:39;12.83;;;3.40;;
9214;SDS011;4642;51.364;6.788;2023-01-10T10:01:12;17.87;;;3.27;;
9214;SDS011;4642;51.364;6.788;2023-01-10T10:03:51;17.37;;;3.00;;
9214;SDS011;4642;51.364;6.788;2023-01-10T10:06:22;13.53;;;3.40;;
9214;SDS011;4642;51.364;6.788;2023-01-10T10:08:48;17.03;;;3.87;;
9214;SDS011;4642;51.364;6.788;2023-01-10T10:13:53;18.40;;;2.67;;
9214;SDS011;4642;51.364;6.788;2023-01-10T10:25:14;12.40;;;3.00;;
9214;SDS011;4642;51.364;6.788;2023-01-10T10:31:01;15.27;;;2.73;;
9214;SDS011;4642;51.364;6.788;2023-01-10T10:33:37;17.67;;;3.10;;
9214;SDS011;4642;51.364;6.788;2023-01-10T10:36:14;16.80;;;4.10;;
9214;SDS011;4642;51.364;6.788;2023-01-10T10:38:47;19.60;;;3.30;;
9214;SDS011;4642;51.364;6.788;2023-01-10T10:43:52;11.73;;;2.63;;
9214;SDS011;4642;51.364;6.788;2023-01-10T10:46:18;12.87;;;3.27;;
9214;SDS011;4642;51.364;6.788;2023-01-10T10:48:52;20.77;;;3.23;;
9214;SDS011;4642;51.364;6.788;2023-01-10T10:51:40;10.73;;;2.77;;
9214;SDS011;4642;51.364;6.788;2023-01-10T10:54:11;12.47;;;2.67;;
9214;SDS011;4642;51.364;6.788;2023-01-10T10:56:38;16.83;;;2.90;;
9214;SDS011;4642;51.364;6.788;2023-01-10T10:59:05;15.83;;;2.80;;
9214;SDS011;4642;51.364;6.788;2023-01-10T11:01:31;16.87;;;2.80;;
9214;SDS011;4642;51.364;6.788;2023-01-10T11:03:57;13.60;;;2.77;;
9214;SDS011;4642;51.364;6.788;2023-01-10T11:06:25;8.87;;;2.63;;
9214;SDS011;4642;51.364;6.788;2023-01-10T11:08:54;14.27;;;2.80;;
9214;SDS011;4642;51.364;6.788;2023-01-10T11:11:26;15.97;;;3.63;;
9214;SDS011;4642;51.364;6.788;2023-01-10T11:13:55;13.40;;;2.77;;
9214;SDS011;4642;51.364;6.788;2023-01-10T11:16:24;9.87;;;2.47;;
9214;SDS011;4642;51.364;6.788;2023-01-10T11:19:14;12.73;;;3.17;;
9214;SDS011;4642;51.364;6.788;2023-01-10T11:21:41;8.97;;;2.37;;
9214;SDS011;4642;51.364;6.788;2023-01-10T11:24:17;13.03;;;2.80;;
9214;SDS011;4642;51.364;6.788;2023-01-10T11:26:44;16.67;;;3.30;;
9214;SDS011;4642;51.364;6.788;2023-01-10T11:29:17;15.47;;;2.87;;
9214;SDS011;4642;51.364;6.788;2023-01-10T11:31:47;18.43;;;3.00;;
9214;SDS011;4642;51.364;6.788;2023-01-10T11:34:22;16.77;;;3.43;;
9214;SDS011;4642;51.364;6.788;2023-01-10T11:36:52;14.20;;;3.20;;
9214;SDS011;4642;51.364;6.788;2023-01-10T11:39:20;22.63;;;3.70;;
9214;SDS011;4642;51.364;6.788;2023-01-10T11:41:46;15.23;;;3.27;;
9214;SDS011;4642;51.364;6.788;2023-01-10T11:46:45;12.03;;;2.50;;
9214;SDS011;4642;51.364;6.788;2023-01-10T11:49:13;10.10;;;3.33;;
9214;SDS011;4642;51.364;6.788;2023-01-10T11:51:46;9.53;;;2.60;;
9214;SDS011;4642;51.364;6.788;2023-01-10T11:54:16;14.47;;;2.70;;
9214;SDS011;4642;51.364;6.788;2023-01-10T11:57:02;17.43;;;3.13;;
9214;SDS011;4642;51.364;6.788;2023-01-10T11:59:32;16.13;;;3.17;;
9214;SDS011;4642;51.364;6.788;2023-01-10T12:02:10;21.70;;;2.87;;
9214;SDS011;4642;51.364;6.788;2023-01-10T12:04:41;12.57;;;2.80;;
9214;SDS011;4642;51.364;6.788;2023-01-10T12:07:11;15.63;;;3.07;;
9214;SDS011;4642;51.364;6.788;2023-01-10T12:09:41;12.83;;;2.07;;
9214;SDS011;4642;51.364;6.788;2023-01-10T12:12:30;22.43;;;3.90;;
9214;SDS011;4642;51.364;6.788;2023-01-10T12:14:58;15.57;;;3.00;;
9214;SDS011;4642;51.364;6.788;2023-01-10T12:17:45;14.67;;;3.10;;
9214;SDS011;4642;51.364;6.788;2023-01-10T12:20:12;14.67;;;2.67;;
9214;SDS011;4642;51.364;6.788;2023-01-10T12:22:39;15.07;;;3.00;;
9214;SDS011;4642;51.364;6.788;2023-01-10T12:25:17;14.60;;;2.80;;
9214;SDS011;4642;51.364;6.788;2023-01-10T12:27:45;11.93;;;2.40;;
9214;SDS011;4642;51.364;6.788;2023-01-10T12:33:05;10.70;;;2.63;;
9214;SDS011;4642;51.364;6.788;2023-01-10T12:35:50;14.17;;;2.97;;
9214;SDS011;4642;51.364;6.788;2023-01-10T12:38:29;16.33;;;3.07;;
9214;SDS011;4642;51.364;6.788;2023-01-10T12:41:23;14.00;;;3.10;;
9214;SDS011;4642;51.364;6.788;2023-01-10T12:44:28;15.50;;;3.03;;
9214;SDS011;4642;51.364;6.788;2023-01-10T12:49:45;14.13;;;2.63;;
9214;SDS011;4642;51.364;6.788;2023-01-10T12:52:23;12.33;;;2.40;;
9214;SDS011;4642;51.364;6.788;2023-01-10T12:54:54;9.90;;;2.30;;
9214;SDS011;4642;51.364;6.788;2023-01-10T12:57:30;11.03;;;2.23;;
9214;SDS011;4642;51.364;6.788;2023-01-10T13:00:04;11.60;;;2.37;;
9214;SDS011;4642;51.364;6.788;2023-01-10T13:02:39;12.03;;;2.60;;
9214;SDS011;4642;51.364;6.788;2023-01-10T13:05:12;10.57;;;2.07;;
9214;SDS011;4642;51.364;6.788;2023-01-10T13:07:41;12.33;;;2.33;;
9214;SDS011;4642;51.364;6.788;2023-01-10T13:10:08;11.47;;;2.57;;
9214;SDS011;4642;51.364;6.788;2023-01-10T13:12:40;10.40;;;2.37;;
9214;SDS011;4642;51.364;6.788;2023-01-10T13:15:20;11.23;;;2.67;;
9214;SDS011;4642;51.364;6.788;2023-01-10T13:17:55;14.50;;;3.07;;
9214;SDS011;4642;51.364;6.788;2023-01-10T13:20:40;13.53;;;2.73;;
9214;SDS011;4642;51.364;6.788;2023-01-10T13:25:58;12.43;;;2.73;;
9214;SDS011;4642;51.364;6.788;2023-01-10T13:28:27;12.37;;;2.60;;
9214;SDS011;4642;51.364;6.788;2023-01-10T13:30:58;9.93;;;2.33;;
9214;SDS011;4642;51.364;6.788;2023-01-10T13:33:26;12.33;;;2.23;;
9214;SDS011;4642;51.364;6.788;2023-01-10T13:35:57;11.53;;;2.50;;
9214;SDS011;4642;51.364;6.788;2023-01-10T13:38:38;14.57;;;3.17;;
9214;SDS011;4642;51.364;6.788;2023-01-10T13:41:13;9.67;;;2.47;;
9214;SDS011;4642;51.364;6.788;2023-01-10T13:43:59;11.83;;;2.57;;
9214;SDS011;4642;51.364;6.788;2023-01-10T13:46:37;9.70;;;2.03;;
9214;SDS011;4642;51.364;6.788;2023-01-10T13:51:37;15.30;;;2.73;;
9214;SDS011;4642;51.364;6.788;2023-01-10T13:56:41;11.37;;;2.30;;
9214;SDS011;4642;51.364;6.788;2023-01-10T13:59:12;10.03;;;2.30;;
9214;SDS011;4642;51.364;6.788;2023-01-10T14:02:12;14.93;;;2.23;;
9214;SDS011;4642;51.364;6.788;2023-01-10T14:04:54;9.70;;;2.33;;
9214;SDS011;4642;51.364;6.788;2023-01-10T14:09:57;10.60;;;2.23;;
9214;SDS011;4642;51.364;6.788;2023-01-10T14:12:34;10.17;;;2.57;;
9214;SDS011;4642;51.364;6.788;2023-01-10T14:15:06;7.20;;;1.80;;
9214;SDS011;4642;51.364;6.788;2023-01-10T14:17:45;11.87;;;2.27;;
9214;SDS011;4642;51.364;6.788;2023-01-10T14:20:30;14.60;;;2.60;;
9214;SDS011;4642;51.364;6.788;2023-01-10T14:23:03;12.37;;;2.23;;
9214;SDS011;4642;51.364;6.788;2023-01-10T14:25:35;9.70;;;2.20;;
9214;SDS011;4642;51.364;6.788;2023-01-10T14:28:02;9.70;;;1.90;;
9214;SDS011;4642;51.364;6.788;2023-01-10T14:30:30;11.10;;;2.43;;
9214;SDS011;4642;51.364;6.788;2023-01-10T14:33:02;6.53;;;1.80;;
9214;SDS011;4642;51.364;6.788;2023-01-10T14:35:32;11.73;;;2.60;;
9214;SDS011;4642;51.364;6.788;2023-01-10T14:38:02;6.60;;;1.93;;
9214;SDS011;4642;51.364;6.788;2023-01-10T14:42:56;10.17;;;2.20;;
9214;SDS011;4642;51.364;6.788;2023-01-10T14:45:29;6.10;;;1.77;;
9214;SDS011;4642;51.364;6.788;2023-01-10T14:48:16;13.90;;;2.33;;
9214;SDS011;4642;51.364;6.788;2023-01-10T14:50:50;7.57;;;2.13;;
9214;SDS011;4642;51.364;6.788;2023-01-10T14:53:27;8.20;;;2.17;;
9214;SDS011;4642;51.364;6.788;2023-01-10T14:55:54;11.13;;;2.40;;
9214;SDS011;4642;51.364;6.788;2023-01-10T14:58:19;9.73;;;1.97;;
9214;SDS011;4642;51.364;6.788;2023-01-10T15:00:46;7.77;;;2.20;;
9214;SDS011;4642;51.364;6.788;2023-01-10T15:03:17;12.37;;;2.03;;
9214;SDS011;4642;51.364;6.788;2023-01-10T15:05:46;7.03;;;2.37;;
9214;SDS011;4642;51.364;6.788;2023-01-10T15:08:21;10.13;;;2.47;;
9214;SDS011;4642;51.364;6.788;2023-01-10T15:10:54;8.90;;;2.10;;
9214;SDS011;4642;51.364;6.788;2023-01-10T15:13:25;8.73;;;1.87;;
9214;SDS011;4642;51.364;6.788;2023-01-10T15:15:52;9.10;;;2.03;;
9214;SDS011;4642;51.364;6.788;2023-01-10T15:20:53;12.17;;;2.70;;
9214;SDS011;4642;51.364;6.788;2023-01-10T15:23:19;7.63;;;1.83;;
9214;SDS011;4642;51.364;6.788;2023-01-10T15:25:45;10.17;;;2.77;;
9214;SDS011;4642;51.364;6.788;2023-01-10T15:28:20;7.93;;;2.23;;
9214;SDS011;4642;51.364;6.788;2023-01-10T15:30:46;17.30;;;2.20;;
9214;SDS011;4642;51.364;6.788;2023-01-10T15:33:13;17.57;;;3.17;;
9214;SDS011;4642;51.364;6.788;2023-01-10T15:35:41;16.07;;;2.53;;
9214;SDS011;4642;51.364;6.788;2023-01-10T15:38:11;7.33;;;2.00;;
9214;SDS011;4642;51.364;6.788;2023-01-10T15:40:40;8.23;;;2.47;;
9214;SDS011;4642;51.364;6.788;2023-01-10T15:45:41;7.63;;;2.00;;
9214;SDS011;4642;51.364;6.788;2023-01-10T15:50:58;7.67;;;1.93;;
9214;SDS011;4642;51.364;6.788;2023-01-10T15:58:58;16.57;;;2.20;;
9214;SDS011;4642;51.364;6.788;2023-01-10T16:01:25;8.87;;;2.30;;
9214;SDS011;4642;51.364;6.788;2023-01-10T16:03:55;14.43;;;2.70;;
9214;SDS011;4642;51.364;6.788;2023-01-10T16:06:28;12.63;;;3.10;;
9214;SDS011;4642;51.364;6.788;2023-01-10T16:08:56;14.90;;;2.83;;
9214;SDS011;4642;51.364;6.788;2023-01-10T16:11:34;9.63;;;2.47;;
9214;SDS011;4642;51.364;6.788;2023-01-10T16:14:21;15.03;;;2.43;;
9214;SDS011;4642;51.364;6.788;2023-01-10T16:16:47;8.43;;;2.17;;
9214;SDS011;4642;51.364;6.788;2023-01-10T16:19:13;14.43;;;2.83;;
9214;SDS011;4642;51.364;6.788;2023-01-10T16:21:40;10.23;;;2.47;;
9214;SDS011;4642;51.364;6.788;2023-01-10T16:24:13;10.13;;;2.33;;
9214;SDS011;4642;51.364;6.788;2023-01-10T16:26:50;10.20;;;2.63;;
9214;SDS011;4642;51.364;6.788;2023-01-10T16:29:16;12.77;;;2.63;;
9214;SDS011;4642;51.364;6.788;2023-01-10T16:31:44;12.67;;;2.23;;
9214;SDS011;4642;51.364;6.788;2023-01-10T16:34:11;10.57;;;2.33;;
9214;SDS011;4642;51.364;6.788;2023-01-10T16:36:37;11.17;;;2.67;;
9214;SDS011;4642;51.364;6.788;2023-01-10T16:39:03;7.67;;;2.90;;
9214;SDS011;4642;51.364;6.788;2023-01-10T16:41:32;17.53;;;2.67;;
9214;SDS011;4642;51.364;6.788;2023-01-10T16:44:17;14.90;;;3.97;;
9214;SDS011;4642;51.364;6.788;2023-01-10T16:46:43;17.37;;;3.77;;
9214;SDS011;4642;51.364;6.788;2023-01-10T16:49:09;9.87;;;2.73;;
9214;SDS011;4642;51.364;6.788;2023-01-10T16:51:36;9.20;;;2.63;;
9214;SDS011;4642;51.364;6.788;2023-01-10T16:54:03;11.93;;;2.87;;
9214;SDS011;4642;51.364;6.788;2023-01-10T16:56:29;13.97;;;3.10;;